sensor_id;sensor_type;location;lat;lon;timestamp;P1;durP1;ratioP1;P2;durP2;ratioP2
3991;SDS011;2010;48.194;16.394;2022-09-21T00:01:41;3.07;;;1.90;;
3991;SDS011;2010;48.194;16.394;2022-09-21T00:04:09;1.60;;;1.50;;
3991;SDS011;2010;48.194;16.394;2022-09-21T00:06:38;1.60;;;1.50;;
3991;SDS011;2010;48.194;16.394;2022-09-21T00:09:07;1.73;;;1.63;;
3991;SDS011;2010;48.194;16.394;2022-09-21T00:11:35;1.83;;;1.67;;
3991;SDS011;2010;48.194;16.394;2022-09-21T00:14:04;2.50;;;1.60;;
3991;SDS011;2010;48.194;16.394;2022-09-21T00:16:34;4.50;;;1.90;;
3991;SDS011;2010;48.194;16.394;2022-09-21T00:19:03;1.57;;;1.47;;
3991;SDS011;2010;48.194;16.394;2022-09-21T00:21:32;1.50;;;1.40;;
3991;SDS011;2010;48.194;16.394;2022-09-21T00:24:01;3.00;;;1.67;;
3991;SDS011;2010;48.194;16.394;2022-09-21T00:26:30;3.20;;;1.30;;
3991;SDS011;2010;48.194;16.394;2022-09-21T00:29:00;3.57;;;1.57;;
3991;SDS011;2010;48.194;16.394;2022-09-21T00:31:29;2.10;;;1.77;;
3991;SDS011;2010;48.194;16.394;2022-09-21T00:33:58;1.77;;;1.67;;
3991;SDS011;2010;48.194;16.394;2022-09-21T00:36:27;1.60;;;1.50;;
3991;SDS011;2010;48.194;16.394;2022-09-21T00:38:56;2.30;;;1.70;;
3991;SDS011;2010;48.194;16.394;2022-09-21T00:41:26;1.50;;;1.40;;
3991;SDS011;2010;48.194;16.394;2022-09-21T00:46:48;2.50;;;1.40;;
3991;SDS011;2010;48.194;16.394;2022-09-21T00:49:20;3.43;;;1.97;;
3991;SDS011;2010;48.194;16.394;2022-09-21T00:51:49;3.07;;;1.77;;
3991;SDS011;2010;48.194;16.394;2022-09-21T00:54:20;1.23;;;1.23;;
3991;SDS011;2010;48.194;16.394;2022-09-21T00:56:50;2.10;;;2.00;;
3991;SDS011;2010;48.194;16.394;2022-09-21T00:59:20;1.80;;;1.67;;
3991;SDS011;2010;48.194;16.394;2022-09-21T01:01:55;2.20;;;2.10;;
3991;SDS011;2010;48.194;16.394;2022-09-21T01:04:25;2.80;;;1.50;;
3991;SDS011;2010;48.194;16.394;2022-09-21T01:06:58;1.77;;;1.67;;
3991;SDS011;2010;48.194;16.394;2022-09-21T01:09:28;2.20;;;1.60;;
3991;SDS011;2010;48.194;16.394;2022-09-21T01:12:00;1.60;;;1.50;;
3991;SDS011;2010;48.194;16.394;2022-09-21T01:14:48;1.77;;;1.67;;
3991;SDS011;2010;48.194;16.394;2022-09-21T01:17:23;1.77;;;1.60;;
3991;SDS011;2010;48.194;16.394;2022-09-21T01:20:18;1.63;;;1.53;;
3991;SDS011;2010;48.194;16.394;2022-09-21T01:23:12;3.47;;;1.67;;
3991;SDS011;2010;48.194;16.394;2022-09-21T01:25:52;1.80;;;1.70;;
3991;SDS011;2010;48.194;16.394;2022-09-21T01:28:29;3.60;;;1.60;;
3991;SDS011;2010;48.194;16.394;2022-09-21T01:31:10;1.53;;;1.43;;
3991;SDS011;2010;48.194;16.394;2022-09-21T01:33:44;2.87;;;1.93;;
3991;SDS011;2010;48.194;16.394;2022-09-21T01:36:19;2.00;;;1.80;;
3991;SDS011;2010;48.194;16.394;2022-09-21T01:38:52;2.93;;;1.50;;
3991;SDS011;2010;48.194;16.394;2022-09-21T01:41:22;1.93;;;1.80;;
3991;SDS011;2010;48.194;16.394;2022-09-21T01:43:53;1.80;;;1.70;;
3991;SDS011;2010;48.194;16.394;2022-09-21T01:46:26;2.03;;;1.60;;
3991;SDS011;2010;48.194;16.394;2022-09-21T01:48:57;3.90;;;2.10;;
3991;SDS011;2010;48.194;16.394;2022-09-21T01:51:26;1.70;;;1.60;;
3991;SDS011;2010;48.194;16.394;2022-09-21T01:53:56;2.57;;;1.90;;
3991;SDS011;2010;48.194;16.394;2022-09-21T01:56:29;1.90;;;1.80;;
3991;SDS011;2010;48.194;16.394;2022-09-21T01:59:03;1.77;;;1.67;;
3991;SDS011;2010;48.194;16.394;2022-09-21T02:01:38;3.47;;;2.17;;
3991;SDS011;2010;48.194;16.394;2022-09-21T02:04:10;1.97;;;1.83;;
3991;SDS011;2010;48.194;16.394;2022-09-21T02:06:40;2.30;;;2.10;;
3991;SDS011;2010;48.194;16.394;2022-09-21T02:09:10;2.20;;;1.90;;
3991;SDS011;2010;48.194;16.394;2022-09-21T02:11:38;1.90;;;1.70;;
3991;SDS011;2010;48.194;16.394;2022-09-21T02:14:09;1.70;;;1.60;;
3991;SDS011;2010;48.194;16.394;2022-09-21T02:16:43;2.60;;;1.77;;
3991;SDS011;2010;48.194;16.394;2022-09-21T02:19:17;3.13;;;1.80;;
3991;SDS011;2010;48.194;16.394;2022-09-21T02:21:51;2.10;;;1.63;;
3991;SDS011;2010;48.194;16.394;2022-09-21T02:24:26;1.90;;;1.70;;
3991;SDS011;2010;48.194;16.394;2022-09-21T02:27:02;1.63;;;1.40;;
3991;SDS011;2010;48.194;16.394;2022-09-21T02:29:35;2.57;;;1.47;;
3991;SDS011;2010;48.194;16.394;2022-09-21T02:32:11;1.67;;;1.57;;
3991;SDS011;2010;48.194;16.394;2022-09-21T02:34:44;1.80;;;1.50;;
3991;SDS011;2010;48.194;16.394;2022-09-21T02:37:16;1.77;;;1.43;;
3991;SDS011;2010;48.194;16.394;2022-09-21T02:39:51;1.53;;;1.43;;
3991;SDS011;2010;48.194;16.394;2022-09-21T02:42:22;2.20;;;1.70;;
3991;SDS011;2010;48.194;16.394;2022-09-21T02:44:56;1.40;;;1.30;;
3991;SDS011;2010;48.194;16.394;2022-09-21T02:47:28;1.90;;;1.80;;
3991;SDS011;2010;48.194;16.394;2022-09-21T02:50:00;1.87;;;1.50;;
3991;SDS011;2010;48.194;16.394;2022-09-21T02:52:30;3.03;;;1.80;;
3991;SDS011;2010;48.194;16.394;2022-09-21T02:54:59;1.73;;;1.63;;
3991;SDS011;2010;48.194;16.394;2022-09-21T02:57:35;3.23;;;1.77;;
3991;SDS011;2010;48.194;16.394;2022-09-21T03:00:07;1.73;;;1.63;;
3991;SDS011;2010;48.194;16.394;2022-09-21T03:02:39;2.23;;;1.87;;
3991;SDS011;2010;48.194;16.394;2022-09-21T03:05:09;2.43;;;1.50;;
3991;SDS011;2010;48.194;16.394;2022-09-21T03:07:38;2.00;;;1.90;;
3991;SDS011;2010;48.194;16.394;2022-09-21T03:10:06;3.07;;;1.83;;
3991;SDS011;2010;48.194;16.394;2022-09-21T03:12:35;2.13;;;1.87;;
3991;SDS011;2010;48.194;16.394;2022-09-21T03:15:04;1.60;;;1.60;;
3991;SDS011;2010;48.194;16.394;2022-09-21T03:17:33;2.03;;;1.70;;
3991;SDS011;2010;48.194;16.394;2022-09-21T03:20:02;2.70;;;2.00;;
3991;SDS011;2010;48.194;16.394;2022-09-21T03:22:31;2.00;;;1.80;;
3991;SDS011;2010;48.194;16.394;2022-09-21T03:24:59;2.63;;;2.43;;
3991;SDS011;2010;48.194;16.394;2022-09-21T03:27:27;2.00;;;1.80;;
3991;SDS011;2010;48.194;16.394;2022-09-21T03:29:56;2.50;;;2.00;;
3991;SDS011;2010;48.194;16.394;2022-09-21T03:32:28;1.90;;;1.40;;
3991;SDS011;2010;48.194;16.394;2022-09-21T03:34:56;1.77;;;1.67;;
3991;SDS011;2010;48.194;16.394;2022-09-21T03:37:26;6.23;;;2.00;;
3991;SDS011;2010;48.194;16.394;2022-09-21T03:39:55;4.67;;;2.00;;
3991;SDS011;2010;48.194;16.394;2022-09-21T03:42:23;2.37;;;2.20;;
3991;SDS011;2010;48.194;16.394;2022-09-21T03:44:51;2.17;;;2.03;;
3991;SDS011;2010;48.194;16.394;2022-09-21T03:47:19;2.60;;;2.17;;
3991;SDS011;2010;48.194;16.394;2022-09-21T03:49:48;2.30;;;1.93;;
3991;SDS011;2010;48.194;16.394;2022-09-21T03:52:16;3.77;;;2.70;;
3991;SDS011;2010;48.194;16.394;2022-09-21T03:54:46;1.80;;;1.70;;
3991;SDS011;2010;48.194;16.394;2022-09-21T03:57:14;2.27;;;2.07;;
3991;SDS011;2010;48.194;16.394;2022-09-21T03:59:42;3.20;;;2.30;;
3991;SDS011;2010;48.194;16.394;2022-09-21T04:02:10;2.20;;;1.90;;
3991;SDS011;2010;48.194;16.394;2022-09-21T04:04:38;2.10;;;1.97;;
3991;SDS011;2010;48.194;16.394;2022-09-21T04:07:06;1.67;;;1.57;;
3991;SDS011;2010;48.194;16.394;2022-09-21T04:09:34;2.77;;;2.37;;
3991;SDS011;2010;48.194;16.394;2022-09-21T04:12:04;2.30;;;2.20;;
3991;SDS011;2010;48.194;16.394;2022-09-21T04:14:32;4.27;;;2.00;;
3991;SDS011;2010;48.194;16.394;2022-09-21T04:17:00;2.73;;;2.40;;
3991;SDS011;2010;48.194;16.394;2022-09-21T04:19:29;7.70;;;2.37;;
3991;SDS011;2010;48.194;16.394;2022-09-21T04:21:57;2.80;;;2.60;;
3991;SDS011;2010;48.194;16.394;2022-09-21T04:24:25;3.43;;;2.40;;
3991;SDS011;2010;48.194;16.394;2022-09-21T04:26:53;2.43;;;2.20;;
3991;SDS011;2010;48.194;16.394;2022-09-21T04:29:24;2.60;;;2.13;;
3991;SDS011;2010;48.194;16.394;2022-09-21T04:31:52;2.50;;;2.40;;
3991;SDS011;2010;48.194;16.394;2022-09-21T04:34:20;3.20;;;2.37;;
3991;SDS011;2010;48.194;16.394;2022-09-21T04:36:48;2.30;;;2.10;;
3991;SDS011;2010;48.194;16.394;2022-09-21T04:39:16;2.60;;;2.40;;
3991;SDS011;2010;48.194;16.394;2022-09-21T04:41:45;3.70;;;2.80;;
3991;SDS011;2010;48.194;16.394;2022-09-21T04:44:14;2.57;;;2.47;;
3991;SDS011;2010;48.194;16.394;2022-09-21T04:46:45;2.83;;;2.60;;
3991;SDS011;2010;48.194;16.394;2022-09-21T04:49:14;4.17;;;2.70;;
3991;SDS011;2010;48.194;16.394;2022-09-21T04:51:42;4.13;;;2.60;;
3991;SDS011;2010;48.194;16.394;2022-09-21T04:54:10;4.03;;;3.13;;
3991;SDS011;2010;48.194;16.394;2022-09-21T04:56:38;3.60;;;2.70;;
3991;SDS011;2010;48.194;16.394;2022-09-21T04:59:07;3.07;;;2.87;;
3991;SDS011;2010;48.194;16.394;2022-09-21T05:01:35;3.37;;;3.07;;
3991;SDS011;2010;48.194;16.394;2022-09-21T05:04:05;5.60;;;2.47;;
3991;SDS011;2010;48.194;16.394;2022-09-21T05:06:39;3.33;;;3.03;;
3991;SDS011;2010;48.194;16.394;2022-09-21T05:09:09;3.47;;;3.07;;
3991;SDS011;2010;48.194;16.394;2022-09-21T05:11:55;7.23;;;3.20;;
3991;SDS011;2010;48.194;16.394;2022-09-21T05:14:23;3.73;;;3.37;;
3991;SDS011;2010;48.194;16.394;2022-09-21T05:16:53;3.70;;;3.40;;
3991;SDS011;2010;48.194;16.394;2022-09-21T05:19:23;3.97;;;3.67;;
3991;SDS011;2010;48.194;16.394;2022-09-21T05:21:51;3.87;;;3.57;;
3991;SDS011;2010;48.194;16.394;2022-09-21T05:24:20;4.40;;;3.50;;
3991;SDS011;2010;48.194;16.394;2022-09-21T05:26:48;4.13;;;3.00;;
3991;SDS011;2010;48.194;16.394;2022-09-21T05:29:17;8.73;;;4.00;;
3991;SDS011;2010;48.194;16.394;2022-09-21T05:31:46;4.40;;;3.50;;
3991;SDS011;2010;48.194;16.394;2022-09-21T05:34:21;3.67;;;3.37;;
3991;SDS011;2010;48.194;16.394;2022-09-21T05:37:04;2.90;;;2.70;;
3991;SDS011;2010;48.194;16.394;2022-09-21T05:39:34;5.50;;;3.23;;
3991;SDS011;2010;48.194;16.394;2022-09-21T05:42:04;3.93;;;3.40;;
3991;SDS011;2010;48.194;16.394;2022-09-21T05:44:33;3.60;;;3.30;;
3991;SDS011;2010;48.194;16.394;2022-09-21T05:47:03;6.03;;;3.40;;
3991;SDS011;2010;48.194;16.394;2022-09-21T05:49:44;3.93;;;3.10;;
3991;SDS011;2010;48.194;16.394;2022-09-21T05:52:16;3.97;;;3.03;;
3991;SDS011;2010;48.194;16.394;2022-09-21T05:54:51;4.63;;;3.10;;
3991;SDS011;2010;48.194;16.394;2022-09-21T05:57:28;7.80;;;3.53;;
3991;SDS011;2010;48.194;16.394;2022-09-21T06:00:08;5.83;;;3.00;;
3991;SDS011;2010;48.194;16.394;2022-09-21T06:02:43;7.80;;;3.50;;
3991;SDS011;2010;48.194;16.394;2022-09-21T06:05:22;4.60;;;3.33;;
3991;SDS011;2010;48.194;16.394;2022-09-21T06:07:51;4.60;;;3.50;;
3991;SDS011;2010;48.194;16.394;2022-09-21T06:10:22;3.40;;;3.13;;
3991;SDS011;2010;48.194;16.394;2022-09-21T06:12:53;7.23;;;3.17;;
3991;SDS011;2010;48.194;16.394;2022-09-21T06:15:21;3.33;;;3.03;;
3991;SDS011;2010;48.194;16.394;2022-09-21T06:17:49;5.27;;;3.13;;
3991;SDS011;2010;48.194;16.394;2022-09-21T06:20:17;6.30;;;3.33;;
3991;SDS011;2010;48.194;16.394;2022-09-21T06:22:47;4.93;;;2.70;;
3991;SDS011;2010;48.194;16.394;2022-09-21T06:25:15;3.17;;;2.97;;
3991;SDS011;2010;48.194;16.394;2022-09-21T06:27:44;3.60;;;2.80;;
3991;SDS011;2010;48.194;16.394;2022-09-21T06:30:12;5.50;;;3.20;;
3991;SDS011;2010;48.194;16.394;2022-09-21T06:32:41;2.70;;;2.50;;
3991;SDS011;2010;48.194;16.394;2022-09-21T06:35:09;5.70;;;3.00;;
3991;SDS011;2010;48.194;16.394;2022-09-21T06:37:37;4.87;;;3.27;;
3991;SDS011;2010;48.194;16.394;2022-09-21T06:40:09;5.93;;;3.67;;
3991;SDS011;2010;48.194;16.394;2022-09-21T06:42:37;4.13;;;2.70;;
3991;SDS011;2010;48.194;16.394;2022-09-21T06:45:06;3.20;;;2.90;;
3991;SDS011;2010;48.194;16.394;2022-09-21T06:47:34;4.23;;;2.90;;
3991;SDS011;2010;48.194;16.394;2022-09-21T06:50:03;6.63;;;3.03;;
3991;SDS011;2010;48.194;16.394;2022-09-21T06:52:31;4.93;;;3.00;;
3991;SDS011;2010;48.194;16.394;2022-09-21T06:54:59;5.93;;;3.50;;
3991;SDS011;2010;48.194;16.394;2022-09-21T06:57:29;5.87;;;2.80;;
3991;SDS011;2010;48.194;16.394;2022-09-21T06:59:58;5.77;;;3.20;;
3991;SDS011;2010;48.194;16.394;2022-09-21T07:02:26;5.77;;;3.30;;
3991;SDS011;2010;48.194;16.394;2022-09-21T07:04:54;4.43;;;3.07;;
3991;SDS011;2010;48.194;16.394;2022-09-21T07:07:24;3.60;;;3.00;;
3991;SDS011;2010;48.194;16.394;2022-09-21T07:09:52;6.23;;;3.20;;
3991;SDS011;2010;48.194;16.394;2022-09-21T07:12:42;2.70;;;2.50;;
3991;SDS011;2010;48.194;16.394;2022-09-21T07:15:10;6.37;;;2.80;;
3991;SDS011;2010;48.194;16.394;2022-09-21T07:17:38;4.40;;;3.27;;
3991;SDS011;2010;48.194;16.394;2022-09-21T07:20:09;2.83;;;2.63;;
3991;SDS011;2010;48.194;16.394;2022-09-21T07:22:37;3.23;;;2.93;;
3991;SDS011;2010;48.194;16.394;2022-09-21T07:25:06;3.07;;;2.87;;
3991;SDS011;2010;48.194;16.394;2022-09-21T07:27:35;3.97;;;2.90;;
3991;SDS011;2010;48.194;16.394;2022-09-21T07:30:06;4.07;;;3.10;;
3991;SDS011;2010;48.194;16.394;2022-09-21T07:32:35;4.90;;;3.03;;
3991;SDS011;2010;48.194;16.394;2022-09-21T07:35:03;6.77;;;2.97;;
3991;SDS011;2010;48.194;16.394;2022-09-21T07:37:32;7.00;;;3.63;;
3991;SDS011;2010;48.194;16.394;2022-09-21T07:40:00;4.07;;;3.60;;
3991;SDS011;2010;48.194;16.394;2022-09-21T07:42:31;4.23;;;3.10;;
3991;SDS011;2010;48.194;16.394;2022-09-21T07:45:01;3.40;;;3.13;;
3991;SDS011;2010;48.194;16.394;2022-09-21T07:47:32;3.80;;;3.50;;
3991;SDS011;2010;48.194;16.394;2022-09-21T07:50:00;3.50;;;3.20;;
3991;SDS011;2010;48.194;16.394;2022-09-21T07:52:28;3.83;;;3.53;;
3991;SDS011;2010;48.194;16.394;2022-09-21T07:54:56;3.73;;;3.43;;
3991;SDS011;2010;48.194;16.394;2022-09-21T07:57:24;4.00;;;3.70;;
3991;SDS011;2010;48.194;16.394;2022-09-21T08:00:10;3.73;;;3.40;;
3991;SDS011;2010;48.194;16.394;2022-09-21T08:02:40;4.33;;;3.83;;
3991;SDS011;2010;48.194;16.394;2022-09-21T08:05:13;4.40;;;3.40;;
3991;SDS011;2010;48.194;16.394;2022-09-21T08:07:41;4.60;;;4.20;;
3991;SDS011;2010;48.194;16.394;2022-09-21T08:10:09;5.40;;;3.73;;
3991;SDS011;2010;48.194;16.394;2022-09-21T08:12:38;3.73;;;3.50;;
3991;SDS011;2010;48.194;16.394;2022-09-21T08:15:09;6.20;;;3.47;;
3991;SDS011;2010;48.194;16.394;2022-09-21T08:17:59;4.03;;;3.63;;
3991;SDS011;2010;48.194;16.394;2022-09-21T08:20:28;4.23;;;3.40;;
3991;SDS011;2010;48.194;16.394;2022-09-21T08:22:56;4.17;;;3.77;;
3991;SDS011;2010;48.194;16.394;2022-09-21T08:25:25;4.33;;;4.03;;
3991;SDS011;2010;48.194;16.394;2022-09-21T08:27:56;4.03;;;3.70;;
3991;SDS011;2010;48.194;16.394;2022-09-21T08:30:26;3.47;;;3.17;;
3991;SDS011;2010;48.194;16.394;2022-09-21T08:32:56;3.70;;;3.40;;
3991;SDS011;2010;48.194;16.394;2022-09-21T08:35:26;6.43;;;3.60;;
3991;SDS011;2010;48.194;16.394;2022-09-21T08:37:54;4.53;;;3.10;;
3991;SDS011;2010;48.194;16.394;2022-09-21T08:40:22;5.17;;;3.40;;
3991;SDS011;2010;48.194;16.394;2022-09-21T08:42:53;7.90;;;3.50;;
3991;SDS011;2010;48.194;16.394;2022-09-21T08:45:24;2.93;;;2.73;;
3991;SDS011;2010;48.194;16.394;2022-09-21T08:47:57;3.50;;;3.20;;
3991;SDS011;2010;48.194;16.394;2022-09-21T08:50:32;4.07;;;3.00;;
3991;SDS011;2010;48.194;16.394;2022-09-21T08:53:03;4.83;;;3.77;;
3991;SDS011;2010;48.194;16.394;2022-09-21T08:55:34;3.47;;;3.27;;
3991;SDS011;2010;48.194;16.394;2022-09-21T08:58:02;5.70;;;3.07;;
3991;SDS011;2010;48.194;16.394;2022-09-21T09:00:31;2.70;;;2.50;;
3991;SDS011;2010;48.194;16.394;2022-09-21T09:03:11;5.73;;;3.07;;
3991;SDS011;2010;48.194;16.394;2022-09-21T09:05:48;2.93;;;2.43;;
3991;SDS011;2010;48.194;16.394;2022-09-21T09:08:27;3.37;;;2.97;;
3991;SDS011;2010;48.194;16.394;2022-09-21T09:11:14;3.00;;;2.60;;
3991;SDS011;2010;48.194;16.394;2022-09-21T09:13:53;7.00;;;3.13;;
3991;SDS011;2010;48.194;16.394;2022-09-21T09:16:40;3.33;;;2.83;;
3991;SDS011;2010;48.194;16.394;2022-09-21T09:19:17;3.53;;;2.63;;
3991;SDS011;2010;48.194;16.394;2022-09-21T09:21:51;5.47;;;3.10;;
3991;SDS011;2010;48.194;16.394;2022-09-21T09:24:26;2.83;;;2.60;;
3991;SDS011;2010;48.194;16.394;2022-09-21T09:27:01;3.00;;;2.80;;
3991;SDS011;2010;48.194;16.394;2022-09-21T09:29:32;2.93;;;2.63;;
3991;SDS011;2010;48.194;16.394;2022-09-21T09:32:14;3.40;;;2.87;;
3991;SDS011;2010;48.194;16.394;2022-09-21T09:34:44;14.87;;;2.90;;
3991;SDS011;2010;48.194;16.394;2022-09-21T09:37:23;3.73;;;2.37;;
3991;SDS011;2010;48.194;16.394;2022-09-21T09:39:55;2.73;;;2.53;;
3991;SDS011;2010;48.194;16.394;2022-09-21T09:42:29;2.97;;;2.77;;
3991;SDS011;2010;48.194;16.394;2022-09-21T09:45:19;2.20;;;2.10;;
3991;SDS011;2010;48.194;16.394;2022-09-21T09:47:57;10.63;;;3.07;;
3991;SDS011;2010;48.194;16.394;2022-09-21T09:50:46;4.73;;;2.10;;
3991;SDS011;2010;48.194;16.394;2022-09-21T09:53:17;2.90;;;2.70;;
3991;SDS011;2010;48.194;16.394;2022-09-21T09:55:48;4.03;;;2.70;;
3991;SDS011;2010;48.194;16.394;2022-09-21T09:58:19;3.37;;;2.87;;
3991;SDS011;2010;48.194;16.394;2022-09-21T10:00:49;3.40;;;2.80;;
3991;SDS011;2010;48.194;16.394;2022-09-21T10:03:20;3.47;;;2.50;;
3991;SDS011;2010;48.194;16.394;2022-09-21T10:05:49;3.03;;;2.73;;
3991;SDS011;2010;48.194;16.394;2022-09-21T10:08:31;3.13;;;1.90;;
3991;SDS011;2010;48.194;16.394;2022-09-21T10:11:09;2.53;;;2.43;;
3991;SDS011;2010;48.194;16.394;2022-09-21T10:13:38;2.77;;;1.97;;
3991;SDS011;2010;48.194;16.394;2022-09-21T10:16:13;2.27;;;2.07;;
3991;SDS011;2010;48.194;16.394;2022-09-21T10:18:44;2.03;;;1.90;;
3991;SDS011;2010;48.194;16.394;2022-09-21T10:21:18;3.27;;;1.87;;
3991;SDS011;2010;48.194;16.394;2022-09-21T10:23:50;1.70;;;1.60;;
3991;SDS011;2010;48.194;16.394;2022-09-21T10:26:29;1.87;;;1.30;;
3991;SDS011;2010;48.194;16.394;2022-09-21T10:28:59;1.50;;;1.47;;
3991;SDS011;2010;48.194;16.394;2022-09-21T10:31:29;2.33;;;1.57;;
3991;SDS011;2010;48.194;16.394;2022-09-21T10:34:05;2.30;;;1.40;;
3991;SDS011;2010;48.194;16.394;2022-09-21T10:36:41;4.30;;;1.30;;
3991;SDS011;2010;48.194;16.394;2022-09-21T10:39:20;1.50;;;1.40;;
3991;SDS011;2010;48.194;16.394;2022-09-21T10:41:55;2.13;;;1.80;;
3991;SDS011;2010;48.194;16.394;2022-09-21T10:44:33;1.97;;;1.87;;
3991;SDS011;2010;48.194;16.394;2022-09-21T10:49:49;1.83;;;1.10;;
3991;SDS011;2010;48.194;16.394;2022-09-21T10:52:21;1.57;;;1.00;;
3991;SDS011;2010;48.194;16.394;2022-09-21T10:54:53;1.50;;;1.00;;
3991;SDS011;2010;48.194;16.394;2022-09-21T10:57:26;2.17;;;1.30;;
3991;SDS011;2010;48.194;16.394;2022-09-21T11:00:04;1.67;;;1.10;;
3991;SDS011;2010;48.194;16.394;2022-09-21T11:02:41;1.60;;;1.03;;
3991;SDS011;2010;48.194;16.394;2022-09-21T11:05:11;1.63;;;1.30;;
3991;SDS011;2010;48.194;16.394;2022-09-21T11:07:45;0.70;;;0.60;;
3991;SDS011;2010;48.194;16.394;2022-09-21T11:10:20;0.70;;;0.70;;
3991;SDS011;2010;48.194;16.394;2022-09-21T11:12:56;0.60;;;0.50;;
3991;SDS011;2010;48.194;16.394;2022-09-21T11:15:32;0.57;;;0.57;;
3991;SDS011;2010;48.194;16.394;2022-09-21T11:18:09;0.70;;;0.60;;
3991;SDS011;2010;48.194;16.394;2022-09-21T11:20:41;0.77;;;0.77;;
3991;SDS011;2010;48.194;16.394;2022-09-21T11:23:23;0.67;;;0.60;;
3991;SDS011;2010;48.194;16.394;2022-09-21T11:26:11;0.60;;;0.60;;
3991;SDS011;2010;48.194;16.394;2022-09-21T11:28:46;0.70;;;0.70;;
3991;SDS011;2010;48.194;16.394;2022-09-21T11:31:21;0.80;;;0.80;;
3991;SDS011;2010;48.194;16.394;2022-09-21T11:34:03;0.93;;;0.80;;
3991;SDS011;2010;48.194;16.394;2022-09-21T11:36:45;0.60;;;0.60;;
3991;SDS011;2010;48.194;16.394;2022-09-21T11:39:20;2.00;;;0.70;;
3991;SDS011;2010;48.194;16.394;2022-09-21T11:41:57;0.70;;;0.60;;
3991;SDS011;2010;48.194;16.394;2022-09-21T11:44:40;0.97;;;0.60;;
3991;SDS011;2010;48.194;16.394;2022-09-21T11:47:19;3.63;;;0.97;;
3991;SDS011;2010;48.194;16.394;2022-09-21T11:50:13;1.00;;;1.00;;
3991;SDS011;2010;48.194;16.394;2022-09-21T11:53:01;2.60;;;0.90;;
3991;SDS011;2010;48.194;16.394;2022-09-21T11:55:52;1.20;;;1.10;;
3991;SDS011;2010;48.194;16.394;2022-09-21T11:58:29;3.20;;;0.97;;
3991;SDS011;2010;48.194;16.394;2022-09-21T12:01:09;3.50;;;0.97;;
3991;SDS011;2010;48.194;16.394;2022-09-21T12:03:59;1.13;;;1.00;;
3991;SDS011;2010;48.194;16.394;2022-09-21T12:06:37;1.30;;;1.20;;
3991;SDS011;2010;48.194;16.394;2022-09-21T12:09:29;1.60;;;1.50;;
3991;SDS011;2010;48.194;16.394;2022-09-21T12:12:08;1.80;;;1.70;;
3991;SDS011;2010;48.194;16.394;2022-09-21T12:14:46;4.23;;;2.10;;
3991;SDS011;2010;48.194;16.394;2022-09-21T12:17:26;1.57;;;1.47;;
3991;SDS011;2010;48.194;16.394;2022-09-21T12:20:02;1.70;;;1.60;;
3991;SDS011;2010;48.194;16.394;2022-09-21T12:22:38;1.17;;;1.13;;
3991;SDS011;2010;48.194;16.394;2022-09-21T12:25:11;1.53;;;1.43;;
3991;SDS011;2010;48.194;16.394;2022-09-21T12:27:46;6.17;;;5.67;;
3991;SDS011;2010;48.194;16.394;2022-09-21T12:30:17;3.00;;;2.80;;
3991;SDS011;2010;48.194;16.394;2022-09-21T12:32:49;3.67;;;1.83;;
3991;SDS011;2010;48.194;16.394;2022-09-21T12:35:24;3.67;;;2.10;;
3991;SDS011;2010;48.194;16.394;2022-09-21T12:37:56;1.80;;;1.70;;
3991;SDS011;2010;48.194;16.394;2022-09-21T12:40:30;10.30;;;2.03;;
3991;SDS011;2010;48.194;16.394;2022-09-21T12:43:07;3.03;;;1.90;;
3991;SDS011;2010;48.194;16.394;2022-09-21T12:45:44;4.17;;;1.70;;
3991;SDS011;2010;48.194;16.394;2022-09-21T12:48:18;1.93;;;1.30;;
3991;SDS011;2010;48.194;16.394;2022-09-21T12:50:53;1.27;;;1.20;;
3991;SDS011;2010;48.194;16.394;2022-09-21T12:53:33;1.30;;;1.30;;
3991;SDS011;2010;48.194;16.394;2022-09-21T12:56:05;6.80;;;1.53;;
3991;SDS011;2010;48.194;16.394;2022-09-21T13:01:31;3.73;;;1.63;;
3991;SDS011;2010;48.194;16.394;2022-09-21T13:04:09;2.70;;;1.50;;
3991;SDS011;2010;48.194;16.394;2022-09-21T13:09:49;1.60;;;1.50;;
3991;SDS011;2010;48.194;16.394;2022-09-21T13:12:19;1.87;;;1.47;;
3991;SDS011;2010;48.194;16.394;2022-09-21T13:14:50;2.40;;;1.30;;
3991;SDS011;2010;48.194;16.394;2022-09-21T13:17:29;1.47;;;1.37;;
3991;SDS011;2010;48.194;16.394;2022-09-21T13:19:59;1.70;;;1.60;;
3991;SDS011;2010;48.194;16.394;2022-09-21T13:22:30;1.60;;;1.50;;
3991;SDS011;2010;48.194;16.394;2022-09-21T13:25:00;1.97;;;1.30;;
3991;SDS011;2010;48.194;16.394;2022-09-21T13:30:34;3.90;;;2.00;;
3991;SDS011;2010;48.194;16.394;2022-09-21T13:39:11;2.50;;;1.50;;
3991;SDS011;2010;48.194;16.394;2022-09-21T13:41:41;1.30;;;1.20;;
3991;SDS011;2010;48.194;16.394;2022-09-21T13:44:39;2.87;;;1.97;;
3991;SDS011;2010;48.194;16.394;2022-09-21T13:47:08;1.60;;;1.50;;
3991;SDS011;2010;48.194;16.394;2022-09-21T13:49:40;1.70;;;1.60;;
3991;SDS011;2010;48.194;16.394;2022-09-21T13:55:03;2.27;;;2.07;;
3991;SDS011;2010;48.194;16.394;2022-09-21T13:57:34;2.80;;;2.10;;
3991;SDS011;2010;48.194;16.394;2022-09-21T14:00:07;2.40;;;2.00;;
3991;SDS011;2010;48.194;16.394;2022-09-21T14:02:55;2.87;;;2.60;;
3991;SDS011;2010;48.194;16.394;2022-09-21T14:05:28;2.10;;;2.00;;
3991;SDS011;2010;48.194;16.394;2022-09-21T14:07:59;2.73;;;2.53;;
3991;SDS011;2010;48.194;16.394;2022-09-21T14:10:29;2.40;;;2.07;;
3991;SDS011;2010;48.194;16.394;2022-09-21T14:13:01;2.50;;;2.30;;
3991;SDS011;2010;48.194;16.394;2022-09-21T14:15:38;2.10;;;1.90;;
3991;SDS011;2010;48.194;16.394;2022-09-21T14:18:07;2.77;;;1.97;;
3991;SDS011;2010;48.194;16.394;2022-09-21T14:24:08;1.80;;;1.70;;
3991;SDS011;2010;48.194;16.394;2022-09-21T14:26:48;1.70;;;1.60;;
3991;SDS011;2010;48.194;16.394;2022-09-21T14:29:20;2.03;;;1.70;;
3991;SDS011;2010;48.194;16.394;2022-09-21T14:31:51;1.90;;;1.80;;
3991;SDS011;2010;48.194;16.394;2022-09-21T14:34:24;1.60;;;1.60;;
3991;SDS011;2010;48.194;16.394;2022-09-21T14:36:55;1.80;;;1.70;;
3991;SDS011;2010;48.194;16.394;2022-09-21T14:39:28;3.07;;;2.13;;
3991;SDS011;2010;48.194;16.394;2022-09-21T14:42:01;2.10;;;2.00;;
3991;SDS011;2010;48.194;16.394;2022-09-21T14:44:39;2.40;;;2.20;;
3991;SDS011;2010;48.194;16.394;2022-09-21T14:47:17;5.03;;;1.90;;
3991;SDS011;2010;48.194;16.394;2022-09-21T14:49:58;3.17;;;1.90;;
3991;SDS011;2010;48.194;16.394;2022-09-21T14:52:48;3.07;;;2.20;;
3991;SDS011;2010;48.194;16.394;2022-09-21T14:55:28;2.97;;;1.77;;
3991;SDS011;2010;48.194;16.394;2022-09-21T14:58:06;2.90;;;2.00;;
3991;SDS011;2010;48.194;16.394;2022-09-21T15:00:47;2.07;;;1.97;;
3991;SDS011;2010;48.194;16.394;2022-09-21T15:03:28;2.37;;;2.20;;
3991;SDS011;2010;48.194;16.394;2022-09-21T15:06:09;3.60;;;2.20;;
3991;SDS011;2010;48.194;16.394;2022-09-21T15:09:04;2.80;;;2.50;;
3991;SDS011;2010;48.194;16.394;2022-09-21T15:12:04;4.67;;;2.40;;
3991;SDS011;2010;48.194;16.394;2022-09-21T15:14:39;2.60;;;2.00;;
3991;SDS011;2010;48.194;16.394;2022-09-21T15:17:23;1.90;;;1.77;;
3991;SDS011;2010;48.194;16.394;2022-09-21T15:19:55;3.63;;;2.33;;
3991;SDS011;2010;48.194;16.394;2022-09-21T15:22:25;3.63;;;2.20;;
3991;SDS011;2010;48.194;16.394;2022-09-21T15:24:54;2.70;;;2.50;;
3991;SDS011;2010;48.194;16.394;2022-09-21T15:27:25;2.70;;;2.50;;
3991;SDS011;2010;48.194;16.394;2022-09-21T15:30:00;4.00;;;2.40;;
3991;SDS011;2010;48.194;16.394;2022-09-21T15:32:34;2.03;;;1.93;;
3991;SDS011;2010;48.194;16.394;2022-09-21T15:35:11;2.67;;;1.83;;
3991;SDS011;2010;48.194;16.394;2022-09-21T15:37:44;2.67;;;1.80;;
3991;SDS011;2010;48.194;16.394;2022-09-21T15:40:17;2.17;;;2.07;;
3991;SDS011;2010;48.194;16.394;2022-09-21T15:42:58;2.67;;;2.47;;
3991;SDS011;2010;48.194;16.394;2022-09-21T15:45:32;2.40;;;2.20;;
3991;SDS011;2010;48.194;16.394;2022-09-21T15:48:05;2.23;;;2.13;;
3991;SDS011;2010;48.194;16.394;2022-09-21T15:50:36;4.30;;;1.80;;
3991;SDS011;2010;48.194;16.394;2022-09-21T15:53:06;2.43;;;2.23;;
3991;SDS011;2010;48.194;16.394;2022-09-21T15:55:36;2.20;;;1.80;;
3991;SDS011;2010;48.194;16.394;2022-09-21T15:58:11;3.23;;;2.07;;
3991;SDS011;2010;48.194;16.394;2022-09-21T16:00:49;2.50;;;2.30;;
3991;SDS011;2010;48.194;16.394;2022-09-21T16:03:21;2.47;;;2.27;;